createdAt,value
2022-09-28T00:08:11.683Z,98525.69
2022-09-28T00:18:16.627Z,98513.28
2022-09-28T00:28:20.250Z,98476.44
2022-09-28T00:38:28.478Z,98470.22
2022-09-28T00:48:37.312Z,98445.00
2022-09-28T00:58:47.984Z,98427.47
2022-09-28T01:08:55.762Z,98414.91
2022-09-28T01:19:17.187Z,98386.25
2022-09-28T01:29:48.002Z,98377.13
2022-09-28T01:39:53.757Z,98368.81
2022-09-28T01:50:07.157Z,98357.91
2022-09-28T02:00:15.085Z,98341.09
2022-09-28T02:10:24.629Z,98318.53
2022-09-28T02:20:30.535Z,98312.00
2022-09-28T02:30:39.510Z,98324.66
2022-09-28T02:40:50.669Z,98329.56
2022-09-28T02:51:07.236Z,98315.16
2022-09-28T03:01:21.449Z,98305.88
2022-09-28T03:11:35.780Z,98309.09
2022-09-28T03:21:39.418Z,98305.69
2022-09-28T03:31:44.907Z,98309.84
2022-09-28T03:41:48.527Z,98320.84
2022-09-28T03:51:53.486Z,98312.31
2022-09-28T04:01:57.777Z,98297.88
2022-09-28T04:12:04.503Z,98307.94
2022-09-28T04:22:08.898Z,98317.25
2022-09-28T04:32:13.886Z,98319.78
2022-09-28T04:42:17.476Z,98329.84
2022-09-28T04:52:22.425Z,98333.19
2022-09-28T05:02:27.646Z,98344.22
2022-09-28T05:12:32.685Z,98340.69
2022-09-28T05:22:36.527Z,98361.84
2022-09-28T05:32:44.041Z,98368.53
2022-09-28T05:42:47.651Z,98386.09
2022-09-28T05:53:01.046Z,98384.63
2022-09-28T06:03:09.487Z,98389.72
2022-09-28T06:13:14.677Z,98394.97
2022-09-28T06:23:18.300Z,98406.72
2022-09-28T06:33:23.306Z,98409.53
2022-09-28T06:43:32.161Z,98416.56
2022-09-28T06:53:39.177Z,98425.91
2022-09-28T07:03:43.380Z,98441.28
2022-09-28T07:13:51.250Z,98438.94
2022-09-28T07:23:55.445Z,98436.44
2022-09-28T07:34:00.701Z,98448.28
2022-09-28T07:44:06.464Z,98462.72
2022-09-28T07:54:11.428Z,98470.91
2022-09-28T08:04:17.025Z,98476.91
2022-09-28T08:14:23.361Z,98492.69
2022-09-28T08:24:30.953Z,98506.19
2022-09-28T08:34:36.645Z,98500.72
2022-09-28T08:54:59.290Z,98512.16
2022-09-28T09:05:07.130Z,98521.63
2022-09-28T09:15:38.740Z,98531.69
2022-09-28T09:25:49.979Z,98529.03
2022-09-28T09:36:13.566Z,98537.56
2022-09-28T09:46:24.822Z,98534.31
2022-09-28T09:56:36.152Z,98515.72
2022-09-28T10:06:42.365Z,98527.53
2022-09-28T10:16:49.047Z,98527.56
2022-09-28T10:26:57.241Z,98519.13
2022-09-28T10:37:05.416Z,98516.59
2022-09-28T10:47:16.930Z,98533.47
2022-09-28T10:57:30.466Z,98536.75
2022-09-28T11:07:45.177Z,98545.22
2022-09-28T11:17:50.257Z,98527.44
2022-09-28T11:28:00.381Z,98516.50
2022-09-28T11:38:33.531Z,98519.13
2022-09-28T11:48:45.234Z,98514.75
2022-09-28T11:58:54.472Z,98508.63
2022-09-28T12:09:06.846Z,98521.44
2022-09-28T12:19:20.243Z,98526.63
2022-09-28T12:29:30.380Z,98529.06
2022-09-28T12:39:58.812Z,98508.69
2022-09-28T12:50:38.265Z,98497.97
2022-09-28T13:00:56.010Z,98514.44
2022-09-28T13:11:09.690Z,98513.69
2022-09-28T13:21:26.220Z,98513.63
2022-09-28T13:31:34.951Z,98519.78
2022-09-28T13:41:50.541Z,98523.31
2022-09-28T13:52:05.754Z,98514.00
2022-09-28T14:02:29.850Z,98520.59
2022-09-28T14:12:48.629Z,98517.22
2022-09-28T14:23:21.935Z,98501.06
2022-09-28T14:33:28.820Z,98505.50
2022-09-28T14:43:58.453Z,98504.06
2022-09-28T14:54:06.457Z,98525.63
2022-09-28T15:04:14.149Z,98534.28
2022-09-28T15:14:19.052Z,98541.94
2022-09-28T15:24:33.878Z,98547.88
2022-09-28T15:34:54.604Z,98564.69
2022-09-28T15:45:24.733Z,98552.94
2022-09-28T15:55:31.878Z,98562.31
2022-09-28T16:05:45.279Z,98572.53
2022-09-28T16:15:57.874Z,98587.78
2022-09-28T16:26:08.318Z,98588.59
2022-09-28T16:36:15.036Z,98596.94
2022-09-28T16:46:23.401Z,98607.94
2022-09-28T16:56:28.308Z,98615.47
2022-09-28T17:06:33.965Z,98627.25
2022-09-28T17:27:07.652Z,98643.16
2022-09-28T17:37:13.502Z,98655.72
2022-09-28T17:47:18.698Z,98658.16
2022-09-28T17:57:25.359Z,98656.38
2022-09-28T18:07:31.841Z,98660.50
2022-09-28T18:17:37.633Z,98679.66
2022-09-28T18:27:45.650Z,98676.97
2022-09-28T18:37:49.796Z,98676.97
2022-09-28T18:47:54.821Z,98677.84
2022-09-28T18:57:58.407Z,98697.28
2022-09-28T19:08:07.708Z,98707.38
2022-09-28T19:18:12.370Z,98718.78
2022-09-28T19:28:17.379Z,98713.66
2022-09-28T19:38:21.041Z,98721.97
2022-09-28T19:48:28.646Z,98739.50
2022-09-28T19:58:37.729Z,98741.94
2022-09-28T20:08:44.769Z,98747.00
2022-09-28T20:18:50.124Z,98754.66
2022-09-28T20:28:58.213Z,98765.47
2022-09-28T20:39:03.340Z,98772.31
2022-09-28T20:49:08.472Z,98775.72
2022-09-28T20:59:13.322Z,98775.59
2022-09-28T21:09:18.333Z,98779.69
2022-09-28T21:19:24.964Z,98791.50
2022-09-28T21:29:30.101Z,98808.69
2022-09-28T21:39:33.812Z,98804.34
2022-09-28T21:49:39.631Z,98795.72
2022-09-28T21:59:43.330Z,98800.75
2022-09-28T22:09:53.326Z,98795.72
2022-09-28T22:19:57.279Z,98803.03
2022-09-28T22:30:02.272Z,98812.13
2022-09-28T22:40:07.378Z,98814.13
2022-09-28T22:50:12.412Z,98815.22
2022-09-28T23:00:16.881Z,98803.59
2022-09-28T23:10:21.943Z,98807.25
2022-09-28T23:20:26.708Z,98800.66
2022-09-28T23:30:34.469Z,98814.28
2022-09-28T23:40:38.159Z,98814.78
2022-09-28T23:50:43.951Z,98811.88
